This is the latest recevied weather packets stored in our database for station/object DJ2RF. If no packets are shown the sender has not sent any weather packets the latest 10 day(s).
| Time | Temp. | Humidity | Pressure | Rain* | Wind** | Luminosity | Snow |
|---|---|---|---|---|---|---|---|
| 1778083848 | 19.44° C | 53% | 1006.7 hPa | 0 mm | - | - | - |
| 1778081139 | 19.44° C | 60% | 1006.7 hPa | 0 mm | - | - | - |
| 1778080641 | 19.44° C | 64% | 1006.8 hPa | 0 mm | - | - | - |
| 1778076760 | 18.89° C | 60% | 1006.9 hPa | 0 mm | - | - | - |
| 1778074637 | 20° C | 58% | 1006.7 hPa | 0 mm | - | - | - |
| 1778073653 | 20.56° C | 55% | 1006.8 hPa | 0 mm | - | - | - |
| 1778073068 | 21.11° C | 56% | 1006.8 hPa | 0 mm | - | - | - |
| 1778069940 | 19.44° C | 60% | 1007.2 hPa | 0 mm | - | - | - |
| 1778069425 | 19.44° C | 60% | 1007.2 hPa | 0 mm | - | - | - |
| 1778068896 | 20° C | 55% | 1007.4 hPa | 0 mm | - | - | - |
| 1778068391 | 20° C | 56% | 1007.5 hPa | 0 mm | - | - | - |
| 1778066169 | 20° C | 63% | 1007.8 hPa | 0 mm | - | - | - |
| 1778060390 | 16.67° C | 70% | 1008.6 hPa | 0 mm | - | - | - |
| 1778059802 | 16.67° C | 69% | 1008.6 hPa | 0 mm | - | - | - |
| 1778056582 | 16.11° C | 71% | 1008.7 hPa | 0 mm | - | - | - |
| 1778056010 | 16.11° C | 72% | 1008.7 hPa | 0 mm | - | - | - |
| 1778055517 | 16.11° C | 72% | 1008.9 hPa | 0 mm | - | - | - |
| 1778054971 | 16.11° C | 72% | 1008.8 hPa | 0 mm | - | - | - |
| 1778054406 | 15.56° C | 74% | 1008.8 hPa | 0 mm | - | - | - |
| 1778053251 | 15° C | 75% | 1008.8 hPa | 0 mm | - | - | - |
| 1778052726 | 15° C | 77% | 1009 hPa | 0 mm | - | - | - |
| 1778052161 | 14.44° C | 77% | 1009.1 hPa | 0 mm | - | - | - |
| 1778051625 | 14.44° C | 78% | 1009.2 hPa | 0 mm | - | - | - |
| 1778051138 | 13.89° C | 78% | 1009.1 hPa | 0 mm | - | - | - |
| 1778050647 | 13.89° C | 79% | 1009.1 hPa | 0 mm | - | - | - |
* Rain latest hour (hover to see other rain measurements)
** Current wind speed in m/s (hover to see current wind gust speed)